This is the latest recevied weather packets stored in our database for station/object IU7LMH-13. If no packets are shown the sender has not sent any weather packets the latest 10 day(s).
| Time | Temp. | Humidity | Pressure | Rain* | Wind** | Luminosity | Snow |
|---|---|---|---|---|---|---|---|
| 1777759057 | 10.56° C | 63% | 1021 hPa | 0 mm | - | - | - |
| 1777758218 | 11.11° C | 62% | 1021.1 hPa | 0 mm | - | - | - |
| 1777757617 | 11.11° C | 61% | 1020.9 hPa | 0 mm | - | - | - |
| 1777757497 | 11.11° C | 62% | 1021 hPa | 0 mm | - | - | - |
| 1777756179 | 10.56° C | 61% | 1021.2 hPa | 0 mm | - | - | - |
| 1777755698 | 10.56° C | 62% | 1021 hPa | 0 mm | - | - | - |
| 1777754618 | 10° C | 65% | 1021 hPa | 0 mm | - | - | - |
| 1777753544 | 10.56° C | 62% | 1021.3 hPa | 0 mm | - | - | - |
| 1777753177 | 10.56° C | 62% | 1020.9 hPa | 0 mm | - | - | - |
| 1777751618 | 11.11° C | 62% | 1021 hPa | 0 mm | - | - | - |
| 1777751260 | 11.11° C | 61% | 1020.9 hPa | 0 mm | - | - | - |
| 1777751143 | 11.11° C | 61% | 1021 hPa | 0 mm | - | - | - |
| 1777750896 | 11.11° C | 60% | 1020.9 hPa | 0 mm | - | - | - |
| 1777748857 | 12.78° C | 53% | 1020.8 hPa | 0 mm | - | - | - |
| 1777748618 | 12.78° C | 52% | 1020.8 hPa | 0 mm | - | - | - |
| 1777748378 | 13.33° C | 49% | 1020.8 hPa | 0 mm | - | - | - |
| 1777747778 | 12.78° C | 50% | 1020.6 hPa | 0 mm | - | - | - |
| 1777746457 | 13.33° C | 49% | 1020.5 hPa | 0 mm | - | - | - |
| 1777745018 | 14.44° C | 45% | 1020.2 hPa | 0 mm | - | - | - |
| 1777744899 | 14.44° C | 45% | 1020.3 hPa | 0 mm | - | - | - |
| 1777744419 | 15° C | 44% | 1020.1 hPa | 0 mm | - | - | - |
| 1777743697 | 16.11° C | 41% | 1020.1 hPa | 0 mm | - | - | - |
| 1777743218 | 17.22° C | 39% | 1020.2 hPa | 0 mm | - | - | - |
| 1777742618 | 17.78° C | 37% | 1020 hPa | 0 mm | - | - | - |
| 1777741657 | 18.89° C | 35% | 1019.9 hPa | 0 mm | - | - | - |
* Rain latest hour (hover to see other rain measurements)
** Current wind speed in m/s (hover to see current wind gust speed)